| time (UTC) | temp C | wind direction | speed KPH | gust KPH | rain 1hr cm | rain 24hr cm | rain mn cm | humidity % | barometer mb |
| 20260504140955 | 20 | 217 | 4.8 | 9.7 | 0.00 | 0.23 | 0.23 | 67 | 1007.1 |
| 20260504080951 | 13 | 340 | 3.2 | 3.2 | 0.00 | 0.23 | 0.23 | 91 | 1008.2 |
| 20260504050019 | 17 | 210 | 8.0 | 11.3 | 0.00 | 0.00 | 0.00 | 61 | 1007.7 |
| 20260504044019 | 16 | 206 | 4.8 | 11.3 | 0.00 | 0.00 | 0.00 | 61 | 1008.2 |
| 20260504042018 | 16 | 204 | 3.2 | 8.0 | 0.00 | 0.00 | 0.00 | 59 | 1008.4 |
| 20260504041018 | 16 | 204 | 6.4 | 12.9 | 0.00 | 0.00 | 0.00 | 58 | 1008.4 |
| 20260504040018 | 17 | 194 | 3.2 | 8.0 | 0.00 | 0.00 | 0.00 | 55 | 1008.6 |
| 20260504034018 | 17 | 191 | 8.0 | 14.5 | 0.00 | 0.00 | 0.00 | 55 | 1008.5 |
| 20260504032018 | 17 | 209 | 6.4 | 12.9 | 0.00 | 0.00 | 0.00 | 55 | 1008.5 |
| 20260504031018 | 17 | 199 | 4.8 | 14.5 | 0.00 | 0.00 | 0.00 | 54 | 1008.6 |
| 20260504030018 | 17 | 198 | 4.8 | 11.3 | 0.00 | 0.00 | 0.00 | 54 | 1008.6 |
| 20260504025017 | 17 | 199 | 4.8 | 11.3 | 0.00 | 0.00 | 0.00 | 53 | 1008.6 |
| 20260504024017 | 17 | 198 | 6.4 | 12.9 | 0.00 | 0.00 | 0.00 | 53 | 1008.7 |
| 20260504022017 | 17 | 199 | 4.8 | 12.9 | 0.00 | 0.00 | 0.00 | 52 | 1008.7 |
| 20260504021017 | 17 | 197 | 3.2 | 9.7 | 0.00 | 0.00 | 0.00 | 51 | 1008.7 |
| 20260504020017 | 18 | 196 | 4.8 | 12.9 | 0.00 | 0.00 | 0.00 | 51 | 1008.6 |
| 20260504015016 | 18 | 186 | 8.0 | 11.3 | 0.00 | 0.00 | 0.00 | 51 | 1008.6 |
| 20260504014016 | 18 | 186 | 4.8 | 12.9 | 0.00 | 0.00 | 0.00 | 50 | 1008.5 |
| 20260504013016 | 18 | 186 | 12.9 | 14.5 | 0.00 | 0.00 | 0.00 | 50 | 1008.5 |
| 20260504012016 | 18 | 180 | 1.6 | 9.7 | 0.00 | 0.00 | 0.00 | 51 | 1008.5 |
| 20260504011016 | 18 | 178 | 0.0 | 11.3 | 0.00 | 0.00 | 0.00 | 50 | 1008.5 |
| 20260504005016 | 18 | 176 | 9.7 | 12.9 | 0.00 | 0.00 | 0.00 | 48 | 1008.7 |
| 20260504003015 | 19 | 182 | 8.0 | 9.7 | 0.00 | 0.00 | 0.00 | 47 | 1008.6 |
| 20260504002015 | 19 | 182 | 3.2 | 9.7 | 0.00 | 0.00 | 0.00 | 46 | 1008.7 |
| 20260503235015 | 20 | 191 | 8.0 | 16.1 | 0.00 | 0.00 | 0.00 | 44 | 1009.0 |
| 20260503234015 | 20 | 209 | 3.2 | 19.3 | 0.00 | 0.00 | 0.00 | 44 | 1009.2 |
| 20260503233015 | 20 | 215 | 9.7 | 11.3 | 0.00 | 0.00 | 0.00 | 44 | 1009.3 |
| 20260503232014 | 20 | 234 | 8.0 | 19.3 | 0.00 | 0.00 | 0.00 | 45 | 1009.6 |
| 20260503231014 | 20 | 187 | 8.0 | 30.6 | 0.00 | 0.00 | 0.00 | 44 | 1009.4 |
| 20260503230014 | 20 | 244 | 6.4 | 16.1 | 0.00 | 0.00 | 0.00 | 44 | 1009.5 |
| 20260503225014 | 20 | 207 | 9.7 | 19.3 | 0.00 | 0.00 | 0.00 | 43 | 1009.6 |
| 20260503224014 | 20 | 223 | 6.4 | 19.3 | 0.00 | 0.00 | 0.00 | 43 | 1009.5 |
| 20260503223014 | 20 | 210 | 8.0 | 17.7 | 0.00 | 0.00 | 0.00 | 43 | 1009.5 |
| 20260503222014 | 20 | 214 | 6.4 | 17.7 | 0.00 | 0.00 | 0.00 | 43 | 1009.4 |
| 20260503221013 | 20 | 204 | 9.7 | 17.7 | 0.00 | 0.00 | 0.00 | 43 | 1009.4 |
| 20260503215013 | 20 | 202 | 14.5 | 22.5 | 0.00 | 0.00 | 0.00 | 43 | 1009.9 |
| 20260503214013 | 20 | 195 | 4.8 | 19.3 | 0.00 | 0.00 | 0.00 | 44 | 1010.0 |
| 20260503213013 | 20 | 213 | 8.0 | 22.5 | 0.00 | 0.00 | 0.00 | 43 | 1010.2 |
| 20260503212013 | 20 | 150 | 22.5 | 22.5 | 0.00 | 0.00 | 0.00 | 43 | 1010.4 |
| 20260503211013 | 20 | 232 | 11.3 | 24.1 | 0.00 | 0.00 | 0.00 | 43 | 1010.5 |
| 20260503210012 | 20 | 208 | 14.5 | 22.5 | 0.00 | 0.00 | 0.00 | 43 | 1010.5 |
| 20260503204012 | 20 | 172 | 22.5 | 25.7 | 0.00 | 0.00 | 0.00 | 44 | 1011.3 |
| 20260503203012 | 20 | 202 | 8.0 | 24.1 | 0.00 | 0.00 | 0.00 | 43 | 1011.6 |
| 20260503202012 | 20 | 229 | 9.7 | 20.9 | 0.00 | 0.00 | 0.00 | 43 | 1011.9 |
| 20260503201012 | 20 | 186 | 19.3 | 27.4 | 0.00 | 0.00 | 0.00 | 43 | 1011.9 |
| 20260503200012 | 20 | 224 | 9.7 | 20.9 | 0.00 | 0.00 | 0.00 | 44 | 1012.2 |
| 20260503195012 | 19 | 198 | 4.8 | 25.7 | 0.00 | 0.00 | 0.00 | 46 | 1012.4 |
| 20260503194012 | 20 | 192 | 8.0 | 17.7 | 0.00 | 0.00 | 0.00 | 46 | 1012.6 |
| 20260503193011 | 19 | 196 | 11.3 | 19.3 | 0.00 | 0.00 | 0.00 | 47 | 1013.3 |
| 20260503192011 | 19 | 186 | 14.5 | 22.5 | 0.00 | 0.00 | 0.00 | 46 | 1013.5 |
| 20260503190011 | 18 | 225 | 9.7 | 20.9 | 0.00 | 0.00 | 0.00 | 48 | 1014.1 |
| 20260503184011 | 18 | 226 | 6.4 | 27.4 | 0.00 | 0.00 | 0.00 | 44 | 1014.3 |
| 20260503183011 | 18 | 227 | 11.3 | 19.3 | 0.00 | 0.00 | 0.00 | 50 | 1014.4 |
| 20260503182011 | 18 | 200 | 12.9 | 27.4 | 0.00 | 0.00 | 0.00 | 48 | 1014.9 |
| 20260503181011 | 17 | 226 | 8.0 | 24.1 | 0.00 | 0.00 | 0.00 | 51 | 1015.1 |
| 20260503180011 | 17 | 202 | 9.7 | 20.9 | 0.00 | 0.03 | 0.00 | 49 | 1015.6 |
| 20260503175010 | 17 | 244 | 8.0 | 20.9 | 0.00 | 0.03 | 0.00 | 51 | 1015.8 |
| 20260503174010 | 17 | 219 | 9.7 | 22.5 | 0.00 | 0.03 | 0.00 | 48 | 1016.0 |
| 20260503172010 | 17 | 186 | 9.7 | 24.1 | 0.00 | 0.03 | 0.00 | 53 | 1016.5 |
| 20260503171010 | 16 | 191 | 3.2 | 20.9 | 0.00 | 0.03 | 0.00 | 55 | 1016.7 |